sensor_id;sensor_type;location;lat;lon;timestamp;temperature;humidity
15983;DHT22;14442;50.196;8.096;2023-07-29T00:02:18;21.00;65.50
15983;DHT22;14442;50.196;8.096;2023-07-29T00:04:45;20.90;65.40
15983;DHT22;14442;50.196;8.096;2023-07-29T00:07:12;20.90;65.40
15983;DHT22;14442;50.196;8.096;2023-07-29T00:09:38;21.00;65.50
15983;DHT22;14442;50.196;8.096;2023-07-29T00:12:07;20.90;65.30
15983;DHT22;14442;50.196;8.096;2023-07-29T00:14:34;20.90;65.40
15983;DHT22;14442;50.196;8.096;2023-07-29T00:17:00;20.90;65.40
15983;DHT22;14442;50.196;8.096;2023-07-29T00:19:27;20.90;65.30
15983;DHT22;14442;50.196;8.096;2023-07-29T00:21:54;20.90;65.30
15983;DHT22;14442;50.196;8.096;2023-07-29T00:24:21;20.90;65.40
15983;DHT22;14442;50.196;8.096;2023-07-29T00:26:47;20.90;65.40
15983;DHT22;14442;50.196;8.096;2023-07-29T00:29:15;20.90;65.40
15983;DHT22;14442;50.196;8.096;2023-07-29T00:31:42;20.90;65.40
15983;DHT22;14442;50.196;8.096;2023-07-29T00:34:09;20.90;65.40
15983;DHT22;14442;50.196;8.096;2023-07-29T00:36:35;20.90;65.30
15983;DHT22;14442;50.196;8.096;2023-07-29T00:39:02;20.90;65.30
15983;DHT22;14442;50.196;8.096;2023-07-29T00:41:29;20.90;65.40
15983;DHT22;14442;50.196;8.096;2023-07-29T00:43:56;20.90;65.30
15983;DHT22;14442;50.196;8.096;2023-07-29T00:46:24;20.90;65.30
15983;DHT22;14442;50.196;8.096;2023-07-29T00:48:51;20.90;65.20
15983;DHT22;14442;50.196;8.096;2023-07-29T00:51:18;20.90;65.30
15983;DHT22;14442;50.196;8.096;2023-07-29T00:53:44;20.90;65.40
15983;DHT22;14442;50.196;8.096;2023-07-29T00:56:12;20.90;65.30
15983;DHT22;14442;50.196;8.096;2023-07-29T00:58:39;20.90;65.20
15983;DHT22;14442;50.196;8.096;2023-07-29T01:01:06;20.90;65.30
15983;DHT22;14442;50.196;8.096;2023-07-29T01:03:35;20.90;65.30
15983;DHT22;14442;50.196;8.096;2023-07-29T01:06:10;20.90;65.30
15983;DHT22;14442;50.196;8.096;2023-07-29T01:08:45;20.90;65.20
15983;DHT22;14442;50.196;8.096;2023-07-29T01:11:24;20.90;65.20
15983;DHT22;14442;50.196;8.096;2023-07-29T01:14:01;20.90;65.30
15983;DHT22;14442;50.196;8.096;2023-07-29T01:16:31;20.90;65.20
15983;DHT22;14442;50.196;8.096;2023-07-29T01:19:05;20.90;65.20
15983;DHT22;14442;50.196;8.096;2023-07-29T01:21:35;20.90;65.20
15983;DHT22;14442;50.196;8.096;2023-07-29T01:24:03;20.90;65.20
15983;DHT22;14442;50.196;8.096;2023-07-29T01:26:30;20.90;65.20
15983;DHT22;14442;50.196;8.096;2023-07-29T01:28:57;20.90;65.20
15983;DHT22;14442;50.196;8.096;2023-07-29T01:31:29;20.80;65.10
15983;DHT22;14442;50.196;8.096;2023-07-29T01:33:59;20.90;65.20
15983;DHT22;14442;50.196;8.096;2023-07-29T01:36:29;20.90;65.30
15983;DHT22;14442;50.196;8.096;2023-07-29T01:38:57;20.90;65.20
15983;DHT22;14442;50.196;8.096;2023-07-29T01:41:26;20.90;65.20
15983;DHT22;14442;50.196;8.096;2023-07-29T01:43:54;20.80;65.10
15983;DHT22;14442;50.196;8.096;2023-07-29T01:46:21;20.90;65.20
15983;DHT22;14442;50.196;8.096;2023-07-29T01:48:47;20.90;65.20
15983;DHT22;14442;50.196;8.096;2023-07-29T01:51:14;20.80;65.10
15983;DHT22;14442;50.196;8.096;2023-07-29T01:53:41;20.80;65.10
15983;DHT22;14442;50.196;8.096;2023-07-29T01:56:08;20.80;65.10
15983;DHT22;14442;50.196;8.096;2023-07-29T01:58:36;20.90;65.20
15983;DHT22;14442;50.196;8.096;2023-07-29T02:01:03;20.80;65.10
15983;DHT22;14442;50.196;8.096;2023-07-29T02:03:29;20.90;65.20
15983;DHT22;14442;50.196;8.096;2023-07-29T02:05:56;20.80;65.10
15983;DHT22;14442;50.196;8.096;2023-07-29T02:08:23;20.80;65.20
15983;DHT22;14442;50.196;8.096;2023-07-29T02:10:50;20.80;65.00
15983;DHT22;14442;50.196;8.096;2023-07-29T02:13:16;20.80;65.10
15983;DHT22;14442;50.196;8.096;2023-07-29T02:15:44;20.80;65.00
15983;DHT22;14442;50.196;8.096;2023-07-29T02:18:11;20.90;65.10
15983;DHT22;14442;50.196;8.096;2023-07-29T02:20:38;20.80;65.10
15983;DHT22;14442;50.196;8.096;2023-07-29T02:23:04;20.80;65.00
15983;DHT22;14442;50.196;8.096;2023-07-29T02:25:31;20.80;65.10
15983;DHT22;14442;50.196;8.096;2023-07-29T02:28:01;20.90;65.10
15983;DHT22;14442;50.196;8.096;2023-07-29T02:30:29;20.80;65.10
15983;DHT22;14442;50.196;8.096;2023-07-29T02:32:57;20.80;64.90
15983;DHT22;14442;50.196;8.096;2023-07-29T02:35:25;20.90;65.00
15983;DHT22;14442;50.196;8.096;2023-07-29T02:37:51;20.80;65.00
15983;DHT22;14442;50.196;8.096;2023-07-29T02:40:18;20.80;65.10
15983;DHT22;14442;50.196;8.096;2023-07-29T02:42:46;20.80;65.00
15983;DHT22;14442;50.196;8.096;2023-07-29T02:45:13;20.80;65.00
15983;DHT22;14442;50.196;8.096;2023-07-29T02:47:39;20.80;64.90
15983;DHT22;14442;50.196;8.096;2023-07-29T02:50:08;20.90;65.30
15983;DHT22;14442;50.196;8.096;2023-07-29T02:52:35;20.80;65.00
15983;DHT22;14442;50.196;8.096;2023-07-29T02:55:02;20.80;65.00
15983;DHT22;14442;50.196;8.096;2023-07-29T02:57:29;20.80;65.00
15983;DHT22;14442;50.196;8.096;2023-07-29T02:59:55;20.80;65.10
15983;DHT22;14442;50.196;8.096;2023-07-29T03:02:22;20.80;65.00
15983;DHT22;14442;50.196;8.096;2023-07-29T03:04:49;20.80;65.10
15983;DHT22;14442;50.196;8.096;2023-07-29T03:07:17;20.80;65.10
15983;DHT22;14442;50.196;8.096;2023-07-29T03:09:43;20.80;65.20
15983;DHT22;14442;50.196;8.096;2023-07-29T03:12:10;20.80;65.20
15983;DHT22;14442;50.196;8.096;2023-07-29T03:14:37;20.80;64.90
15983;DHT22;14442;50.196;8.096;2023-07-29T03:17:04;20.80;65.10
15983;DHT22;14442;50.196;8.096;2023-07-29T03:19:31;20.80;65.20
15983;DHT22;14442;50.196;8.096;2023-07-29T03:21:57;20.80;65.10
15983;DHT22;14442;50.196;8.096;2023-07-29T03:24:26;20.80;65.00
15983;DHT22;14442;50.196;8.096;2023-07-29T03:26:52;20.80;65.00
15983;DHT22;14442;50.196;8.096;2023-07-29T03:29:19;20.80;65.20
15983;DHT22;14442;50.196;8.096;2023-07-29T03:31:46;20.80;65.00
15983;DHT22;14442;50.196;8.096;2023-07-29T03:34:12;20.80;65.00
15983;DHT22;14442;50.196;8.096;2023-07-29T03:36:39;20.80;64.90
15983;DHT22;14442;50.196;8.096;2023-07-29T03:39:06;20.80;65.10
15983;DHT22;14442;50.196;8.096;2023-07-29T03:41:34;20.80;65.00
15983;DHT22;14442;50.196;8.096;2023-07-29T03:44:01;20.80;65.10
15983;DHT22;14442;50.196;8.096;2023-07-29T03:46:27;20.80;65.10
15983;DHT22;14442;50.196;8.096;2023-07-29T03:48:54;20.80;65.00
15983;DHT22;14442;50.196;8.096;2023-07-29T03:51:21;20.80;65.00
15983;DHT22;14442;50.196;8.096;2023-07-29T03:53:48;20.80;65.00
15983;DHT22;14442;50.196;8.096;2023-07-29T03:56:15;20.80;65.00
15983;DHT22;14442;50.196;8.096;2023-07-29T03:58:43;20.80;65.00
15983;DHT22;14442;50.196;8.096;2023-07-29T04:01:10;20.80;65.10
15983;DHT22;14442;50.196;8.096;2023-07-29T04:03:36;20.80;65.00
15983;DHT22;14442;50.196;8.096;2023-07-29T04:06:03;20.80;65.00
15983;DHT22;14442;50.196;8.096;2023-07-29T04:08:30;20.80;65.00
15983;DHT22;14442;50.196;8.096;2023-07-29T04:10:57;20.80;65.00
15983;DHT22;14442;50.196;8.096;2023-07-29T04:13:24;20.80;65.00
15983;DHT22;14442;50.196;8.096;2023-07-29T04:15:52;20.80;65.00
15983;DHT22;14442;50.196;8.096;2023-07-29T04:18:19;20.80;65.00
15983;DHT22;14442;50.196;8.096;2023-07-29T04:20:45;20.80;65.10
15983;DHT22;14442;50.196;8.096;2023-07-29T04:23:12;20.70;64.80
15983;DHT22;14442;50.196;8.096;2023-07-29T04:25:39;20.80;65.00
15983;DHT22;14442;50.196;8.096;2023-07-29T04:28:05;20.80;65.00
15983;DHT22;14442;50.196;8.096;2023-07-29T04:30:32;20.80;65.00
15983;DHT22;14442;50.196;8.096;2023-07-29T04:33:00;20.80;64.90
15983;DHT22;14442;50.196;8.096;2023-07-29T04:35:27;20.80;65.00
15983;DHT22;14442;50.196;8.096;2023-07-29T04:37:53;20.80;65.00
15983;DHT22;14442;50.196;8.096;2023-07-29T04:40:20;20.80;64.90
15983;DHT22;14442;50.196;8.096;2023-07-29T04:42:48;20.80;64.90
15983;DHT22;14442;50.196;8.096;2023-07-29T04:45:15;20.80;65.00
15983;DHT22;14442;50.196;8.096;2023-07-29T04:47:41;20.80;65.00
15983;DHT22;14442;50.196;8.096;2023-07-29T04:50:10;20.80;65.10
15983;DHT22;14442;50.196;8.096;2023-07-29T04:52:36;20.80;65.00
15983;DHT22;14442;50.196;8.096;2023-07-29T04:55:04;20.80;65.00
15983;DHT22;14442;50.196;8.096;2023-07-29T04:57:30;20.80;65.00
15983;DHT22;14442;50.196;8.096;2023-07-29T04:59:57;20.80;64.90
15983;DHT22;14442;50.196;8.096;2023-07-29T05:02:24;20.80;65.10
15983;DHT22;14442;50.196;8.096;2023-07-29T05:04:51;20.80;65.00
15983;DHT22;14442;50.196;8.096;2023-07-29T05:07:19;20.80;65.00
15983;DHT22;14442;50.196;8.096;2023-07-29T05:09:46;20.80;64.90
15983;DHT22;14442;50.196;8.096;2023-07-29T05:12:13;20.80;65.00
15983;DHT22;14442;50.196;8.096;2023-07-29T05:14:40;20.80;65.70
15983;DHT22;14442;50.196;8.096;2023-07-29T05:17:06;20.80;64.90
15983;DHT22;14442;50.196;8.096;2023-07-29T05:19:33;20.80;64.90
15983;DHT22;14442;50.196;8.096;2023-07-29T05:22:00;20.80;64.90
15983;DHT22;14442;50.196;8.096;2023-07-29T05:24:28;20.80;64.90
15983;DHT22;14442;50.196;8.096;2023-07-29T05:26:54;20.80;64.90
15983;DHT22;14442;50.196;8.096;2023-07-29T05:29:21;20.80;64.90
15983;DHT22;14442;50.196;8.096;2023-07-29T05:31:48;20.80;64.90
15983;DHT22;14442;50.196;8.096;2023-07-29T05:34:14;20.80;65.30
15983;DHT22;14442;50.196;8.096;2023-07-29T05:36:41;20.80;65.00
15983;DHT22;14442;50.196;8.096;2023-07-29T05:39:08;20.80;64.90
15983;DHT22;14442;50.196;8.096;2023-07-29T05:41:36;20.80;64.80
15983;DHT22;14442;50.196;8.096;2023-07-29T05:44:03;20.80;64.90
15983;DHT22;14442;50.196;8.096;2023-07-29T05:46:29;20.80;65.00
15983;DHT22;14442;50.196;8.096;2023-07-29T05:48:56;20.80;65.00
15983;DHT22;14442;50.196;8.096;2023-07-29T05:51:23;20.80;64.90
15983;DHT22;14442;50.196;8.096;2023-07-29T05:53:49;20.80;65.00
15983;DHT22;14442;50.196;8.096;2023-07-29T05:56:16;20.80;65.10
15983;DHT22;14442;50.196;8.096;2023-07-29T05:58:44;20.80;65.10
15983;DHT22;14442;50.196;8.096;2023-07-29T06:01:11;20.80;65.10
15983;DHT22;14442;50.196;8.096;2023-07-29T06:03:37;20.80;65.00
15983;DHT22;14442;50.196;8.096;2023-07-29T06:06:04;20.80;65.20
15983;DHT22;14442;50.196;8.096;2023-07-29T06:08:31;20.80;65.10
15983;DHT22;14442;50.196;8.096;2023-07-29T06:10:59;20.80;65.20
15983;DHT22;14442;50.196;8.096;2023-07-29T06:13:26;20.80;65.20
15983;DHT22;14442;50.196;8.096;2023-07-29T06:15:54;20.80;65.20
15983;DHT22;14442;50.196;8.096;2023-07-29T06:18:21;20.80;65.00
15983;DHT22;14442;50.196;8.096;2023-07-29T06:20:47;20.80;65.00
15983;DHT22;14442;50.196;8.096;2023-07-29T06:23:14;20.80;64.90
15983;DHT22;14442;50.196;8.096;2023-07-29T06:25:41;20.80;65.00
15983;DHT22;14442;50.196;8.096;2023-07-29T06:28:08;20.80;65.10
15983;DHT22;14442;50.196;8.096;2023-07-29T06:30:35;20.80;65.30
15983;DHT22;14442;50.196;8.096;2023-07-29T06:33:03;20.80;65.20
15983;DHT22;14442;50.196;8.096;2023-07-29T06:35:30;20.80;65.20
15983;DHT22;14442;50.196;8.096;2023-07-29T06:37:57;20.80;65.20
15983;DHT22;14442;50.196;8.096;2023-07-29T06:40:24;20.80;65.30
15983;DHT22;14442;50.196;8.096;2023-07-29T06:42:51;20.80;65.20
15983;DHT22;14442;50.196;8.096;2023-07-29T06:45:18;20.80;65.20
15983;DHT22;14442;50.196;8.096;2023-07-29T06:47:45;20.80;65.10
15983;DHT22;14442;50.196;8.096;2023-07-29T06:50:13;20.80;65.20
15983;DHT22;14442;50.196;8.096;2023-07-29T06:52:40;20.80;65.00
15983;DHT22;14442;50.196;8.096;2023-07-29T06:55:07;20.80;65.20
15983;DHT22;14442;50.196;8.096;2023-07-29T06:57:34;20.80;65.00
15983;DHT22;14442;50.196;8.096;2023-07-29T07:00:01;20.80;65.00
15983;DHT22;14442;50.196;8.096;2023-07-29T07:02:28;20.80;65.00
15983;DHT22;14442;50.196;8.096;2023-07-29T07:04:55;20.80;65.00
15983;DHT22;14442;50.196;8.096;2023-07-29T07:07:23;20.80;65.00
15983;DHT22;14442;50.196;8.096;2023-07-29T07:09:49;20.80;65.10
15983;DHT22;14442;50.196;8.096;2023-07-29T07:12:16;20.80;65.00
15983;DHT22;14442;50.196;8.096;2023-07-29T07:14:43;20.90;64.90
15983;DHT22;14442;50.196;8.096;2023-07-29T07:17:09;20.80;64.90
15983;DHT22;14442;50.196;8.096;2023-07-29T07:19:36;20.90;65.00
15983;DHT22;14442;50.196;8.096;2023-07-29T07:22:03;20.80;65.10
15983;DHT22;14442;50.196;8.096;2023-07-29T07:24:31;20.80;65.10
15983;DHT22;14442;50.196;8.096;2023-07-29T07:26:58;20.80;64.80
15983;DHT22;14442;50.196;8.096;2023-07-29T07:29:25;20.80;65.10
15983;DHT22;14442;50.196;8.096;2023-07-29T07:31:53;20.80;64.90
15983;DHT22;14442;50.196;8.096;2023-07-29T07:34:20;20.80;65.00
15983;DHT22;14442;50.196;8.096;2023-07-29T07:36:46;20.90;65.00
15983;DHT22;14442;50.196;8.096;2023-07-29T07:39:13;20.90;65.00
15983;DHT22;14442;50.196;8.096;2023-07-29T07:41:42;20.90;65.00
15983;DHT22;14442;50.196;8.096;2023-07-29T07:44:09;20.90;65.00
15983;DHT22;14442;50.196;8.096;2023-07-29T07:46:36;20.90;64.90
15983;DHT22;14442;50.196;8.096;2023-07-29T07:49:03;20.90;65.10
15983;DHT22;14442;50.196;8.096;2023-07-29T07:51:29;20.90;65.90
15983;DHT22;14442;50.196;8.096;2023-07-29T07:53:56;21.00;66.70
15983;DHT22;14442;50.196;8.096;2023-07-29T07:56:23;21.00;66.60
15983;DHT22;14442;50.196;8.096;2023-07-29T07:58:51;21.00;66.50
15983;DHT22;14442;50.196;8.096;2023-07-29T08:01:17;21.00;66.90
15983;DHT22;14442;50.196;8.096;2023-07-29T08:03:45;21.10;67.20
15983;DHT22;14442;50.196;8.096;2023-07-29T08:06:11;21.10;67.30
15983;DHT22;14442;50.196;8.096;2023-07-29T08:08:38;21.10;67.20
15983;DHT22;14442;50.196;8.096;2023-07-29T08:11:05;21.20;67.30
15983;DHT22;14442;50.196;8.096;2023-07-29T08:13:31;21.10;67.50
15983;DHT22;14442;50.196;8.096;2023-07-29T08:15:59;21.10;67.30
15983;DHT22;14442;50.196;8.096;2023-07-29T08:18:26;21.10;67.40
15983;DHT22;14442;50.196;8.096;2023-07-29T08:20:53;21.10;67.60
15983;DHT22;14442;50.196;8.096;2023-07-29T08:23:21;21.10;67.80
15983;DHT22;14442;50.196;8.096;2023-07-29T08:25:52;21.10;67.40
15983;DHT22;14442;50.196;8.096;2023-07-29T08:28:19;21.10;67.70
15983;DHT22;14442;50.196;8.096;2023-07-29T08:30:47;21.20;68.00
15983;DHT22;14442;50.196;8.096;2023-07-29T08:33:16;21.20;68.10
15983;DHT22;14442;50.196;8.096;2023-07-29T08:35:42;21.20;68.40
15983;DHT22;14442;50.196;8.096;2023-07-29T08:38:09;21.10;68.40
15983;DHT22;14442;50.196;8.096;2023-07-29T08:40:38;21.20;68.50
15983;DHT22;14442;50.196;8.096;2023-07-29T08:43:06;21.10;68.40
15983;DHT22;14442;50.196;8.096;2023-07-29T08:45:35;21.20;68.60
15983;DHT22;14442;50.196;8.096;2023-07-29T08:48:03;21.10;69.40
15983;DHT22;14442;50.196;8.096;2023-07-29T08:50:33;21.20;69.30
15983;DHT22;14442;50.196;8.096;2023-07-29T08:53:03;21.30;69.30
15983;DHT22;14442;50.196;8.096;2023-07-29T08:55:31;21.30;69.10
15983;DHT22;14442;50.196;8.096;2023-07-29T08:57:58;21.30;69.20
15983;DHT22;14442;50.196;8.096;2023-07-29T09:00:25;21.30;69.20
15983;DHT22;14442;50.196;8.096;2023-07-29T09:02:52;21.30;69.20
15983;DHT22;14442;50.196;8.096;2023-07-29T09:05:20;21.40;69.30
15983;DHT22;14442;50.196;8.096;2023-07-29T09:07:50;21.40;69.40
15983;DHT22;14442;50.196;8.096;2023-07-29T09:10:21;21.40;69.30
15983;DHT22;14442;50.196;8.096;2023-07-29T09:12:48;21.40;69.30
15983;DHT22;14442;50.196;8.096;2023-07-29T09:15:26;21.40;69.20
15983;DHT22;14442;50.196;8.096;2023-07-29T09:17:53;21.40;68.90
15983;DHT22;14442;50.196;8.096;2023-07-29T09:20:24;21.50;69.10
15983;DHT22;14442;50.196;8.096;2023-07-29T09:22:52;21.50;69.00
15983;DHT22;14442;50.196;8.096;2023-07-29T09:25:23;21.50;68.80
15983;DHT22;14442;50.196;8.096;2023-07-29T09:27:50;21.50;69.20
15983;DHT22;14442;50.196;8.096;2023-07-29T09:30:17;21.60;70.30
15983;DHT22;14442;50.196;8.096;2023-07-29T09:32:44;21.60;70.30
15983;DHT22;14442;50.196;8.096;2023-07-29T09:35:11;21.60;69.70
15983;DHT22;14442;50.196;8.096;2023-07-29T09:37:38;21.60;69.60
15983;DHT22;14442;50.196;8.096;2023-07-29T09:40:13;21.60;69.50
15983;DHT22;14442;50.196;8.096;2023-07-29T09:42:47;21.60;69.40
15983;DHT22;14442;50.196;8.096;2023-07-29T09:45:20;21.50;69.20
15983;DHT22;14442;50.196;8.096;2023-07-29T09:47:47;21.50;69.20
15983;DHT22;14442;50.196;8.096;2023-07-29T09:50:15;21.50;69.00
15983;DHT22;14442;50.196;8.096;2023-07-29T09:52:42;21.50;68.90
15983;DHT22;14442;50.196;8.096;2023-07-29T09:55:11;21.50;68.80
15983;DHT22;14442;50.196;8.096;2023-07-29T09:57:39;21.50;68.60
15983;DHT22;14442;50.196;8.096;2023-07-29T10:00:07;21.50;68.60
15983;DHT22;14442;50.196;8.096;2023-07-29T10:02:37;21.60;68.70
15983;DHT22;14442;50.196;8.096;2023-07-29T10:05:05;21.60;68.50
15983;DHT22;14442;50.196;8.096;2023-07-29T10:07:33;21.60;68.40
15983;DHT22;14442;50.196;8.096;2023-07-29T10:10:01;21.60;68.40
15983;DHT22;14442;50.196;8.096;2023-07-29T10:12:30;21.60;68.40
15983;DHT22;14442;50.196;8.096;2023-07-29T10:14:59;21.60;68.30
15983;DHT22;14442;50.196;8.096;2023-07-29T10:17:26;21.60;68.10
15983;DHT22;14442;50.196;8.096;2023-07-29T10:19:54;21.60;68.00
15983;DHT22;14442;50.196;8.096;2023-07-29T10:22:25;21.60;68.00
15983;DHT22;14442;50.196;8.096;2023-07-29T10:24:54;21.60;67.90
15983;DHT22;14442;50.196;8.096;2023-07-29T10:27:23;21.60;68.00
15983;DHT22;14442;50.196;8.096;2023-07-29T10:29:55;21.60;68.20
15983;DHT22;14442;50.196;8.096;2023-07-29T10:32:25;21.60;68.30
15983;DHT22;14442;50.196;8.096;2023-07-29T10:34:52;21.60;68.30
15983;DHT22;14442;50.196;8.096;2023-07-29T10:37:19;21.60;68.20
15983;DHT22;14442;50.196;8.096;2023-07-29T10:39:53;21.60;68.10
15983;DHT22;14442;50.196;8.096;2023-07-29T10:42:20;21.60;68.10
15983;DHT22;14442;50.196;8.096;2023-07-29T10:44:48;21.60;68.10
15983;DHT22;14442;50.196;8.096;2023-07-29T10:47:17;21.60;67.90
15983;DHT22;14442;50.196;8.096;2023-07-29T10:49:46;21.60;68.00
15983;DHT22;14442;50.196;8.096;2023-07-29T10:52:14;21.70;68.20
15983;DHT22;14442;50.196;8.096;2023-07-29T10:54:45;21.70;68.10
15983;DHT22;14442;50.196;8.096;2023-07-29T10:57:15;21.70;68.20
15983;DHT22;14442;50.196;8.096;2023-07-29T10:59:54;21.70;68.20
15983;DHT22;14442;50.196;8.096;2023-07-29T11:02:29;21.70;68.10
15983;DHT22;14442;50.196;8.096;2023-07-29T11:04:56;21.60;67.80
15983;DHT22;14442;50.196;8.096;2023-07-29T11:07:23;21.70;67.90
15983;DHT22;14442;50.196;8.096;2023-07-29T11:09:59;21.60;67.80
15983;DHT22;14442;50.196;8.096;2023-07-29T11:12:37;21.60;67.80
15983;DHT22;14442;50.196;8.096;2023-07-29T11:15:15;21.60;67.80
15983;DHT22;14442;50.196;8.096;2023-07-29T11:17:45;21.70;67.90
15983;DHT22;14442;50.196;8.096;2023-07-29T11:20:14;21.70;67.80
15983;DHT22;14442;50.196;8.096;2023-07-29T11:22:42;21.70;67.80
15983;DHT22;14442;50.196;8.096;2023-07-29T11:25:10;21.70;67.70
15983;DHT22;14442;50.196;8.096;2023-07-29T11:27:37;21.70;67.50
15983;DHT22;14442;50.196;8.096;2023-07-29T11:30:05;21.80;67.50
15983;DHT22;14442;50.196;8.096;2023-07-29T11:32:34;21.80;67.50
15983;DHT22;14442;50.196;8.096;2023-07-29T11:35:03;21.80;67.60
15983;DHT22;14442;50.196;8.096;2023-07-29T11:37:32;21.70;67.40
15983;DHT22;14442;50.196;8.096;2023-07-29T11:39:58;21.70;67.40
15983;DHT22;14442;50.196;8.096;2023-07-29T11:42:26;21.70;67.30
15983;DHT22;14442;50.196;8.096;2023-07-29T11:44:53;21.70;67.10
15983;DHT22;14442;50.196;8.096;2023-07-29T11:47:20;21.70;67.00
15983;DHT22;14442;50.196;8.096;2023-07-29T11:49:46;21.70;67.20
15983;DHT22;14442;50.196;8.096;2023-07-29T11:52:15;21.80;67.40
15983;DHT22;14442;50.196;8.096;2023-07-29T11:54:44;21.80;67.30
15983;DHT22;14442;50.196;8.096;2023-07-29T11:57:11;21.80;67.20
15983;DHT22;14442;50.196;8.096;2023-07-29T11:59:39;21.80;67.20
15983;DHT22;14442;50.196;8.096;2023-07-29T12:02:10;21.80;67.30
15983;DHT22;14442;50.196;8.096;2023-07-29T12:04:38;21.80;67.50
15983;DHT22;14442;50.196;8.096;2023-07-29T12:07:05;21.90;67.60
15983;DHT22;14442;50.196;8.096;2023-07-29T12:09:34;21.80;67.50
15983;DHT22;14442;50.196;8.096;2023-07-29T12:12:01;21.80;67.30
15983;DHT22;14442;50.196;8.096;2023-07-29T12:14:28;21.80;67.30
15983;DHT22;14442;50.196;8.096;2023-07-29T12:16:55;21.80;67.30
15983;DHT22;14442;50.196;8.096;2023-07-29T12:19:22;21.80;67.40
15983;DHT22;14442;50.196;8.096;2023-07-29T12:21:50;21.90;67.30
15983;DHT22;14442;50.196;8.096;2023-07-29T12:24:17;21.90;67.40
15983;DHT22;14442;50.196;8.096;2023-07-29T12:26:47;21.90;67.70
15983;DHT22;14442;50.196;8.096;2023-07-29T12:29:14;21.90;67.60
15983;DHT22;14442;50.196;8.096;2023-07-29T12:31:41;21.90;67.50
15983;DHT22;14442;50.196;8.096;2023-07-29T12:34:08;21.90;67.50
15983;DHT22;14442;50.196;8.096;2023-07-29T12:36:44;21.90;67.50
15983;DHT22;14442;50.196;8.096;2023-07-29T12:39:19;21.90;67.60
15983;DHT22;14442;50.196;8.096;2023-07-29T12:41:55;21.90;67.50
15983;DHT22;14442;50.196;8.096;2023-07-29T12:44:23;21.90;67.60
15983;DHT22;14442;50.196;8.096;2023-07-29T12:46:50;21.90;67.60
15983;DHT22;14442;50.196;8.096;2023-07-29T12:49:17;21.90;67.60
15983;DHT22;14442;50.196;8.096;2023-07-29T12:51:44;21.90;67.60
15983;DHT22;14442;50.196;8.096;2023-07-29T12:54:10;21.90;67.60
15983;DHT22;14442;50.196;8.096;2023-07-29T12:56:37;21.90;67.50
15983;DHT22;14442;50.196;8.096;2023-07-29T12:59:06;21.90;67.40
15983;DHT22;14442;50.196;8.096;2023-07-29T13:01:32;21.90;67.30
15983;DHT22;14442;50.196;8.096;2023-07-29T13:03:59;21.90;67.30
15983;DHT22;14442;50.196;8.096;2023-07-29T13:06:26;21.90;67.30
15983;DHT22;14442;50.196;8.096;2023-07-29T13:08:52;22.00;67.10
15983;DHT22;14442;50.196;8.096;2023-07-29T13:11:19;22.00;66.80
15983;DHT22;14442;50.196;8.096;2023-07-29T13:13:46;22.10;66.70
15983;DHT22;14442;50.196;8.096;2023-07-29T13:16:14;22.10;66.50
15983;DHT22;14442;50.196;8.096;2023-07-29T13:18:40;22.10;66.40
15983;DHT22;14442;50.196;8.096;2023-07-29T13:21:07;22.20;66.40
15983;DHT22;14442;50.196;8.096;2023-07-29T13:23:34;22.20;66.30
15983;DHT22;14442;50.196;8.096;2023-07-29T13:26:00;22.20;66.30
15983;DHT22;14442;50.196;8.096;2023-07-29T13:28:27;22.20;66.10
15983;DHT22;14442;50.196;8.096;2023-07-29T13:30:54;22.20;66.20
15983;DHT22;14442;50.196;8.096;2023-07-29T13:33:22;22.30;66.20
15983;DHT22;14442;50.196;8.096;2023-07-29T13:35:49;22.30;66.00
15983;DHT22;14442;50.196;8.096;2023-07-29T13:38:15;22.30;66.00
15983;DHT22;14442;50.196;8.096;2023-07-29T13:40:42;22.40;66.00
15983;DHT22;14442;50.196;8.096;2023-07-29T13:43:09;22.30;65.90
15983;DHT22;14442;50.196;8.096;2023-07-29T13:45:36;22.30;65.90
15983;DHT22;14442;50.196;8.096;2023-07-29T13:48:03;22.40;65.90
15983;DHT22;14442;50.196;8.096;2023-07-29T13:50:31;22.40;65.80
15983;DHT22;14442;50.196;8.096;2023-07-29T13:52:58;22.40;65.70
15983;DHT22;14442;50.196;8.096;2023-07-29T13:55:24;22.40;65.60
15983;DHT22;14442;50.196;8.096;2023-07-29T13:57:53;22.50;65.30
15983;DHT22;14442;50.196;8.096;2023-07-29T14:00:20;22.50;65.30
15983;DHT22;14442;50.196;8.096;2023-07-29T14:02:47;22.50;65.20
15983;DHT22;14442;50.196;8.096;2023-07-29T14:05:14;22.50;65.20
15983;DHT22;14442;50.196;8.096;2023-07-29T14:07:42;22.60;65.30
15983;DHT22;14442;50.196;8.096;2023-07-29T14:10:09;22.60;65.30
15983;DHT22;14442;50.196;8.096;2023-07-29T14:12:35;22.60;66.00
15983;DHT22;14442;50.196;8.096;2023-07-29T14:15:03;22.60;65.20
15983;DHT22;14442;50.196;8.096;2023-07-29T14:17:31;22.60;65.30
15983;DHT22;14442;50.196;8.096;2023-07-29T14:19:57;22.50;65.20
15983;DHT22;14442;50.196;8.096;2023-07-29T14:22:24;22.60;65.20
15983;DHT22;14442;50.196;8.096;2023-07-29T14:24:52;22.60;65.10
15983;DHT22;14442;50.196;8.096;2023-07-29T14:27:19;22.70;65.20
15983;DHT22;14442;50.196;8.096;2023-07-29T14:29:45;22.70;65.00
15983;DHT22;14442;50.196;8.096;2023-07-29T14:32:12;22.70;65.00
15983;DHT22;14442;50.196;8.096;2023-07-29T14:34:39;22.70;64.90
15983;DHT22;14442;50.196;8.096;2023-07-29T14:37:05;22.80;64.90
15983;DHT22;14442;50.196;8.096;2023-07-29T14:39:32;22.80;64.80
15983;DHT22;14442;50.196;8.096;2023-07-29T14:42:00;22.90;64.80
15983;DHT22;14442;50.196;8.096;2023-07-29T14:44:27;22.90;64.80
15983;DHT22;14442;50.196;8.096;2023-07-29T14:46:54;22.90;64.70
15983;DHT22;14442;50.196;8.096;2023-07-29T14:49:20;22.90;64.60
15983;DHT22;14442;50.196;8.096;2023-07-29T14:51:47;22.90;64.60
15983;DHT22;14442;50.196;8.096;2023-07-29T14:54:14;22.90;64.70
15983;DHT22;14442;50.196;8.096;2023-07-29T14:56:41;23.00;64.80
15983;DHT22;14442;50.196;8.096;2023-07-29T14:59:09;23.00;64.80
15983;DHT22;14442;50.196;8.096;2023-07-29T15:01:36;23.00;64.60
15983;DHT22;14442;50.196;8.096;2023-07-29T15:04:03;23.00;64.40
15983;DHT22;14442;50.196;8.096;2023-07-29T15:06:29;23.10;64.30
15983;DHT22;14442;50.196;8.096;2023-07-29T15:08:56;23.10;64.40
15983;DHT22;14442;50.196;8.096;2023-07-29T15:11:23;23.10;64.20
15983;DHT22;14442;50.196;8.096;2023-07-29T15:13:50;23.10;64.20
15983;DHT22;14442;50.196;8.096;2023-07-29T15:16:18;23.10;64.10
15983;DHT22;14442;50.196;8.096;2023-07-29T15:18:45;23.10;64.30
15983;DHT22;14442;50.196;8.096;2023-07-29T15:21:11;23.10;64.20
15983;DHT22;14442;50.196;8.096;2023-07-29T15:23:38;23.20;64.20
15983;DHT22;14442;50.196;8.096;2023-07-29T15:26:05;23.00;64.40
15983;DHT22;14442;50.196;8.096;2023-07-29T15:28:31;23.00;64.50
15983;DHT22;14442;50.196;8.096;2023-07-29T15:30:58;23.00;64.40
15983;DHT22;14442;50.196;8.096;2023-07-29T15:33:26;23.00;64.50